sensor_id;sensor_type;location;lat;lon;timestamp;pressure;altitude;pressure_sealevel;temperature;humidity
63405;BME280;49541;57.840;12.306;2023-04-27T00:00:20;99966.97;;;4.48;65.93
63405;BME280;49541;57.840;12.306;2023-04-27T00:05:20;99973.28;;;4.59;65.92
63405;BME280;49541;57.840;12.306;2023-04-27T00:10:21;99975.59;;;4.63;65.15
63405;BME280;49541;57.840;12.306;2023-04-27T00:15:21;99975.22;;;4.81;64.84
63405;BME280;49541;57.840;12.306;2023-04-27T00:20:21;99980.22;;;4.97;63.82
63405;BME280;49541;57.840;12.306;2023-04-27T00:25:22;99979.28;;;4.98;63.87
63405;BME280;49541;57.840;12.306;2023-04-27T00:30:22;99981.38;;;4.92;63.40
63405;BME280;49541;57.840;12.306;2023-04-27T00:35:22;99986.09;;;4.76;63.74
63405;BME280;49541;57.840;12.306;2023-04-27T00:40:23;99982.94;;;4.71;63.55
63405;BME280;49541;57.840;12.306;2023-04-27T00:45:23;99984.16;;;4.54;63.72
63405;BME280;49541;57.840;12.306;2023-04-27T00:50:27;99976.13;;;4.56;63.63
63405;BME280;49541;57.840;12.306;2023-04-27T00:55:30;99972.69;;;4.29;64.02
63405;BME280;49541;57.840;12.306;2023-04-27T01:00:30;99975.84;;;4.47;62.92
63405;BME280;49541;57.840;12.306;2023-04-27T01:05:31;99981.34;;;4.19;63.47
63405;BME280;49541;57.840;12.306;2023-04-27T01:10:31;99981.91;;;3.98;63.67
63405;BME280;49541;57.840;12.306;2023-04-27T01:15:31;99978.63;;;3.95;63.57
63405;BME280;49541;57.840;12.306;2023-04-27T01:20:31;99979.47;;;4.08;62.98
63405;BME280;49541;57.840;12.306;2023-04-27T01:25:32;99983.91;;;3.95;63.03
63405;BME280;49541;57.840;12.306;2023-04-27T01:30:32;99982.66;;;4.00;62.40
63405;BME280;49541;57.840;12.306;2023-04-27T01:35:32;99984.41;;;3.87;62.86
63405;BME280;49541;57.840;12.306;2023-04-27T01:40:33;99976.41;;;3.88;63.06
63405;BME280;49541;57.840;12.306;2023-04-27T01:45:33;99992.97;;;3.90;63.16
63405;BME280;49541;57.840;12.306;2023-04-27T01:50:33;99983.91;;;3.95;63.06
63405;BME280;49541;57.840;12.306;2023-04-27T01:55:33;99987.16;;;3.73;63.78
63405;BME280;49541;57.840;12.306;2023-04-27T02:00:33;99991.28;;;3.89;63.71
63405;BME280;49541;57.840;12.306;2023-04-27T02:05:34;99989.41;;;3.92;63.43
63405;BME280;49541;57.840;12.306;2023-04-27T02:10:35;99995.91;;;4.12;62.83
63405;BME280;49541;57.840;12.306;2023-04-27T02:15:35;99992.63;;;3.95;63.31
63405;BME280;49541;57.840;12.306;2023-04-27T02:20:36;99992.53;;;3.97;63.43
63405;BME280;49541;57.840;12.306;2023-04-27T02:25:36;99992.53;;;3.97;63.71
63405;BME280;49541;57.840;12.306;2023-04-27T02:30:37;99998.47;;;4.13;63.09
63405;BME280;49541;57.840;12.306;2023-04-27T02:35:37;99990.84;;;4.08;62.94
63405;BME280;49541;57.840;12.306;2023-04-27T02:40:37;99992.94;;;3.78;64.12
63405;BME280;49541;57.840;12.306;2023-04-27T02:45:37;100002.84;;;3.87;64.35
63405;BME280;49541;57.840;12.306;2023-04-27T02:50:41;99997.56;;;3.61;65.23
63405;BME280;49541;57.840;12.306;2023-04-27T02:55:45;100002.25;;;3.96;64.59
63405;BME280;49541;57.840;12.306;2023-04-27T03:00:52;99998.44;;;4.26;63.15
63405;BME280;49541;57.840;12.306;2023-04-27T03:05:52;99993.38;;;3.97;64.35
63405;BME280;49541;57.840;12.306;2023-04-27T03:10:53;99992.22;;;4.01;64.43
63405;BME280;49541;57.840;12.306;2023-04-27T03:15:53;99998.75;;;3.70;65.45
63405;BME280;49541;57.840;12.306;2023-04-27T03:20:53;100001.88;;;3.62;65.63
63405;BME280;49541;57.840;12.306;2023-04-27T03:25:53;100002.34;;;3.82;64.49
63405;BME280;49541;57.840;12.306;2023-04-27T03:30:53;100005.16;;;3.66;63.92
63405;BME280;49541;57.840;12.306;2023-04-27T03:35:57;100007.09;;;3.77;63.49
63405;BME280;49541;57.840;12.306;2023-04-27T03:40:57;100021.16;;;3.63;63.47
63405;BME280;49541;57.840;12.306;2023-04-27T03:45:57;100010.81;;;3.47;63.26
63405;BME280;49541;57.840;12.306;2023-04-27T03:50:59;100017.47;;;3.65;62.72
63405;BME280;49541;57.840;12.306;2023-04-27T03:56:00;100020.91;;;3.40;62.72
63405;BME280;49541;57.840;12.306;2023-04-27T04:01:00;100014.38;;;3.46;62.36
63405;BME280;49541;57.840;12.306;2023-04-27T04:06:01;100016.97;;;3.33;62.46
63405;BME280;49541;57.840;12.306;2023-04-27T04:11:02;100020.25;;;3.37;62.73
63405;BME280;49541;57.840;12.306;2023-04-27T04:16:03;100014.38;;;3.46;62.64
63405;BME280;49541;57.840;12.306;2023-04-27T04:21:04;100028.09;;;3.51;63.41
63405;BME280;49541;57.840;12.306;2023-04-27T04:26:04;100036.50;;;4.35;61.52
63405;BME280;49541;57.840;12.306;2023-04-27T04:31:04;100039.97;;;4.48;60.96
63405;BME280;49541;57.840;12.306;2023-04-27T04:36:05;100039.66;;;4.01;61.66
63405;BME280;49541;57.840;12.306;2023-04-27T04:41:05;100048.56;;;3.73;61.90
63405;BME280;49541;57.840;12.306;2023-04-27T04:46:06;100051.38;;;3.57;62.76
63405;BME280;49541;57.840;12.306;2023-04-27T04:51:06;100050.47;;;3.84;62.93
63405;BME280;49541;57.840;12.306;2023-04-27T04:56:07;100053.81;;;4.88;61.28
63405;BME280;49541;57.840;12.306;2023-04-27T05:01:07;100049.91;;;5.66;58.94
63405;BME280;49541;57.840;12.306;2023-04-27T05:06:07;100059.19;;;5.24;60.06
63405;BME280;49541;57.840;12.306;2023-04-27T05:11:07;100068.53;;;5.04;61.65
63405;BME280;49541;57.840;12.306;2023-04-27T05:16:08;100065.28;;;5.24;60.49
63405;BME280;49541;57.840;12.306;2023-04-27T05:21:14;100060.97;;;5.23;61.09
63405;BME280;49541;57.840;12.306;2023-04-27T05:26:16;100051.16;;;5.49;60.16
63405;BME280;49541;57.840;12.306;2023-04-27T05:31:16;100059.63;;;5.42;58.84
63405;BME280;49541;57.840;12.306;2023-04-27T05:36:16;100064.03;;;5.65;58.21
63405;BME280;49541;57.840;12.306;2023-04-27T05:41:16;100062.69;;;5.84;56.45
63405;BME280;49541;57.840;12.306;2023-04-27T05:46:17;100064.09;;;5.77;56.69
63405;BME280;49541;57.840;12.306;2023-04-27T05:51:17;100055.47;;;5.86;56.02
63405;BME280;49541;57.840;12.306;2023-04-27T05:56:17;100060.47;;;6.02;56.16
63405;BME280;49541;57.840;12.306;2023-04-27T06:01:17;100062.09;;;5.91;56.10
63405;BME280;49541;57.840;12.306;2023-04-27T06:06:17;100064.00;;;6.25;55.34
63405;BME280;49541;57.840;12.306;2023-04-27T06:11:18;100063.53;;;6.20;54.81
63405;BME280;49541;57.840;12.306;2023-04-27T06:16:18;100068.97;;;6.52;53.93
63405;BME280;49541;57.840;12.306;2023-04-27T06:21:19;100073.28;;;6.30;52.41
63405;BME280;49541;57.840;12.306;2023-04-27T06:26:20;100073.88;;;6.34;53.02
63405;BME280;49541;57.840;12.306;2023-04-27T06:31:20;100091.69;;;6.43;51.90
63405;BME280;49541;57.840;12.306;2023-04-27T06:36:20;100089.72;;;6.34;52.34
63405;BME280;49541;57.840;12.306;2023-04-27T06:41:21;100094.09;;;6.69;51.59
63405;BME280;49541;57.840;12.306;2023-04-27T06:46:21;100087.50;;;6.52;51.13
63405;BME280;49541;57.840;12.306;2023-04-27T06:51:21;100091.94;;;6.63;51.65
63405;BME280;49541;57.840;12.306;2023-04-27T06:56:21;100086.75;;;6.50;49.79
63405;BME280;49541;57.840;12.306;2023-04-27T07:01:21;100094.69;;;6.50;50.89
63405;BME280;49541;57.840;12.306;2023-04-27T07:06:22;100100.56;;;6.98;48.25
63405;BME280;49541;57.840;12.306;2023-04-27T07:11:24;100128.34;;;7.38;48.42
63405;BME280;49541;57.840;12.306;2023-04-27T07:16:25;100124.53;;;7.08;49.15
63405;BME280;49541;57.840;12.306;2023-04-27T07:21:25;100116.31;;;7.34;48.09
63405;BME280;49541;57.840;12.306;2023-04-27T07:26:25;100129.44;;;7.24;48.53
63405;BME280;49541;57.840;12.306;2023-04-27T07:31:26;100140.88;;;6.80;47.57
63405;BME280;49541;57.840;12.306;2023-04-27T07:36:26;100139.31;;;7.00;47.20
63405;BME280;49541;57.840;12.306;2023-04-27T07:41:27;100147.50;;;7.19;46.27
63405;BME280;49541;57.840;12.306;2023-04-27T07:46:27;100146.38;;;7.33;46.83
63405;BME280;49541;57.840;12.306;2023-04-27T07:51:29;100164.03;;;7.55;44.55
63405;BME280;49541;57.840;12.306;2023-04-27T07:56:29;100157.09;;;7.20;45.53
63405;BME280;49541;57.840;12.306;2023-04-27T08:01:29;100150.81;;;7.44;45.77
63405;BME280;49541;57.840;12.306;2023-04-27T08:06:29;100152.38;;;7.90;45.33
63405;BME280;49541;57.840;12.306;2023-04-27T08:11:30;100157.94;;;7.87;45.00
63405;BME280;49541;57.840;12.306;2023-04-27T08:16:30;100180.06;;;7.97;44.57
63405;BME280;49541;57.840;12.306;2023-04-27T08:21:30;100173.75;;;7.77;44.48
63405;BME280;49541;57.840;12.306;2023-04-27T08:26:31;100176.47;;;7.87;44.92
63405;BME280;49541;57.840;12.306;2023-04-27T08:31:32;100174.75;;;7.97;43.94
63405;BME280;49541;57.840;12.306;2023-04-27T08:36:32;100181.78;;;7.87;43.49
63405;BME280;49541;57.840;12.306;2023-04-27T08:41:33;100194.34;;;7.73;44.77
63405;BME280;49541;57.840;12.306;2023-04-27T08:46:33;100196.66;;;7.67;44.33
63405;BME280;49541;57.840;12.306;2023-04-27T08:51:34;100186.84;;;7.78;43.81
63405;BME280;49541;57.840;12.306;2023-04-27T08:56:34;100207.44;;;7.86;43.08
63405;BME280;49541;57.840;12.306;2023-04-27T09:01:34;100193.50;;;8.16;41.98
63405;BME280;49541;57.840;12.306;2023-04-27T09:06:34;100201.91;;;8.21;42.21
63405;BME280;49541;57.840;12.306;2023-04-27T09:11:35;100208.19;;;8.20;41.85
63405;BME280;49541;57.840;12.306;2023-04-27T09:16:36;100208.84;;;8.02;41.31
63405;BME280;49541;57.840;12.306;2023-04-27T09:21:37;100223.25;;;8.52;41.01
63405;BME280;49541;57.840;12.306;2023-04-27T09:26:37;100226.44;;;8.46;41.13
63405;BME280;49541;57.840;12.306;2023-04-27T09:31:37;100230.72;;;7.83;41.82
63405;BME280;49541;57.840;12.306;2023-04-27T09:36:38;100219.78;;;8.52;41.36
63405;BME280;49541;57.840;12.306;2023-04-27T09:41:39;100225.66;;;8.76;39.00
63405;BME280;49541;57.840;12.306;2023-04-27T09:46:40;100228.06;;;8.58;40.67
63405;BME280;49541;57.840;12.306;2023-04-27T09:51:42;100234.63;;;8.43;39.98
63405;BME280;49541;57.840;12.306;2023-04-27T10:01:55;100243.31;;;8.66;38.12
63405;BME280;49541;57.840;12.306;2023-04-27T10:12:11;100242.81;;;8.93;40.19
63405;BME280;49541;57.840;12.306;2023-04-27T10:17:11;100240.16;;;9.24;38.40
63405;BME280;49541;57.840;12.306;2023-04-27T10:22:12;100247.00;;;8.96;38.96
63405;BME280;49541;57.840;12.306;2023-04-27T10:27:14;100252.13;;;8.88;39.55
63405;BME280;49541;57.840;12.306;2023-04-27T10:32:22;100267.28;;;9.49;39.71
63405;BME280;49541;57.840;12.306;2023-04-27T10:37:23;100249.75;;;9.87;38.38
63405;BME280;49541;57.840;12.306;2023-04-27T10:42:25;100269.88;;;9.79;38.81
63405;BME280;49541;57.840;12.306;2023-04-27T10:47:36;100266.88;;;9.63;38.83
63405;BME280;49541;57.840;12.306;2023-04-27T10:52:43;100257.47;;;9.90;38.07
63405;BME280;49541;57.840;12.306;2023-04-27T10:57:48;100269.34;;;9.86;38.82
63405;BME280;49541;57.840;12.306;2023-04-27T11:02:49;100272.38;;;10.41;37.54
63405;BME280;49541;57.840;12.306;2023-04-27T11:07:50;100276.88;;;10.31;38.26
63405;BME280;49541;57.840;12.306;2023-04-27T11:12:50;100274.56;;;9.97;38.07
63405;BME280;49541;57.840;12.306;2023-04-27T11:17:50;100283.56;;;10.25;37.69
63405;BME280;49541;57.840;12.306;2023-04-27T11:22:51;100290.88;;;10.33;37.17
63405;BME280;49541;57.840;12.306;2023-04-27T11:27:51;100300.97;;;10.88;36.02
63405;BME280;49541;57.840;12.306;2023-04-27T11:32:51;100314.91;;;10.21;36.28
63405;BME280;49541;57.840;12.306;2023-04-27T11:37:55;100304.84;;;10.15;35.91
63405;BME280;49541;57.840;12.306;2023-04-27T11:42:57;100314.03;;;10.01;36.94
63405;BME280;49541;57.840;12.306;2023-04-27T11:47:58;100320.75;;;10.65;34.89
63405;BME280;49541;57.840;12.306;2023-04-27T11:52:59;100323.03;;;11.27;35.07
63405;BME280;49541;57.840;12.306;2023-04-27T11:57:59;100330.94;;;10.41;35.61
63405;BME280;49541;57.840;12.306;2023-04-27T12:03:00;100338.00;;;10.11;36.27
63405;BME280;49541;57.840;12.306;2023-04-27T12:08:02;100331.66;;;9.93;37.37
63405;BME280;49541;57.840;12.306;2023-04-27T12:13:02;100335.81;;;9.86;37.13
63405;BME280;49541;57.840;12.306;2023-04-27T12:18:02;100353.78;;;10.03;35.01
63405;BME280;49541;57.840;12.306;2023-04-27T12:23:03;100355.34;;;9.44;36.70
63405;BME280;49541;57.840;12.306;2023-04-27T12:28:03;100352.81;;;10.64;34.30
63405;BME280;49541;57.840;12.306;2023-04-27T12:33:03;100383.03;;;10.34;32.25
63405;BME280;49541;57.840;12.306;2023-04-27T12:38:08;100372.84;;;10.08;33.23
63405;BME280;49541;57.840;12.306;2023-04-27T12:43:08;100386.75;;;9.81;34.10
63405;BME280;49541;57.840;12.306;2023-04-27T12:48:09;100375.38;;;10.19;34.35
63405;BME280;49541;57.840;12.306;2023-04-27T12:53:09;100389.81;;;11.16;33.88
63405;BME280;49541;57.840;12.306;2023-04-27T12:58:09;100399.28;;;10.40;34.28
63405;BME280;49541;57.840;12.306;2023-04-27T13:03:09;100383.09;;;10.92;33.23
63405;BME280;49541;57.840;12.306;2023-04-27T13:08:10;100394.03;;;10.89;33.72
63405;BME280;49541;57.840;12.306;2023-04-27T13:13:10;100391.38;;;10.79;34.60
63405;BME280;49541;57.840;12.306;2023-04-27T13:18:11;100404.53;;;10.81;35.37
63405;BME280;49541;57.840;12.306;2023-04-27T13:23:11;100403.13;;;11.35;35.25
63405;BME280;49541;57.840;12.306;2023-04-27T13:28:11;100408.59;;;10.65;35.04
63405;BME280;49541;57.840;12.306;2023-04-27T13:33:12;100424.56;;;10.65;34.50
63405;BME280;49541;57.840;12.306;2023-04-27T13:38:12;100417.72;;;11.12;34.87
63405;BME280;49541;57.840;12.306;2023-04-27T13:43:12;100433.88;;;11.10;33.29
63405;BME280;49541;57.840;12.306;2023-04-27T13:48:12;100423.94;;;10.33;33.69
63405;BME280;49541;57.840;12.306;2023-04-27T13:53:13;100422.09;;;11.13;31.38
63405;BME280;49541;57.840;12.306;2023-04-27T13:58:15;100419.97;;;10.97;30.93
63405;BME280;49541;57.840;12.306;2023-04-27T14:03:15;100429.50;;;11.09;31.83
63405;BME280;49541;57.840;12.306;2023-04-27T14:08:16;100435.13;;;10.96;31.10
63405;BME280;49541;57.840;12.306;2023-04-27T14:13:16;100424.59;;;11.04;32.14
63405;BME280;49541;57.840;12.306;2023-04-27T14:18:17;100432.75;;;11.13;32.90
63405;BME280;49541;57.840;12.306;2023-04-27T14:23:17;100439.19;;;11.30;32.64
63405;BME280;49541;57.840;12.306;2023-04-27T14:28:17;100448.97;;;11.48;31.67
63405;BME280;49541;57.840;12.306;2023-04-27T14:33:17;100452.66;;;11.28;30.62
63405;BME280;49541;57.840;12.306;2023-04-27T14:38:17;100449.72;;;12.07;28.34
63405;BME280;49541;57.840;12.306;2023-04-27T14:43:18;100455.66;;;11.72;30.26
63405;BME280;49541;57.840;12.306;2023-04-27T14:48:18;100463.88;;;11.41;30.47
63405;BME280;49541;57.840;12.306;2023-04-27T14:53:18;100471.41;;;10.78;32.89
63405;BME280;49541;57.840;12.306;2023-04-27T14:58:18;100475.28;;;10.64;33.54
63405;BME280;49541;57.840;12.306;2023-04-27T15:03:18;100466.22;;;10.76;34.65
63405;BME280;49541;57.840;12.306;2023-04-27T15:08:19;100475.09;;;11.25;34.34
63405;BME280;49541;57.840;12.306;2023-04-27T15:13:19;100475.38;;;11.13;34.33
63405;BME280;49541;57.840;12.306;2023-04-27T15:18:19;100476.72;;;10.78;34.76
63405;BME280;49541;57.840;12.306;2023-04-27T15:23:20;100477.78;;;10.56;35.88
63405;BME280;49541;57.840;12.306;2023-04-27T15:28:20;100489.31;;;10.66;37.30
63405;BME280;49541;57.840;12.306;2023-04-27T15:33:21;100491.63;;;11.00;35.82
63405;BME280;49541;57.840;12.306;2023-04-27T15:38:21;100495.44;;;11.36;35.55
63405;BME280;49541;57.840;12.306;2023-04-27T15:43:21;100499.81;;;10.68;36.70
63405;BME280;49541;57.840;12.306;2023-04-27T15:48:22;100503.38;;;10.37;37.49
63405;BME280;49541;57.840;12.306;2023-04-27T15:53:22;100501.03;;;10.54;37.04
63405;BME280;49541;57.840;12.306;2023-04-27T15:58:22;100494.34;;;10.59;36.67
63405;BME280;49541;57.840;12.306;2023-04-27T16:03:22;100510.09;;;10.82;35.96
63405;BME280;49541;57.840;12.306;2023-04-27T16:08:22;100516.59;;;10.28;37.96
63405;BME280;49541;57.840;12.306;2023-04-27T16:13:25;100511.38;;;10.47;37.69
63405;BME280;49541;57.840;12.306;2023-04-27T16:18:27;100524.47;;;10.29;38.04
63405;BME280;49541;57.840;12.306;2023-04-27T16:23:27;100520.88;;;10.40;37.42
63405;BME280;49541;57.840;12.306;2023-04-27T16:28:27;100512.00;;;10.60;37.08
63405;BME280;49541;57.840;12.306;2023-04-27T16:33:28;100518.69;;;10.24;36.74
63405;BME280;49541;57.840;12.306;2023-04-27T16:38:28;100513.56;;;10.11;35.46
63405;BME280;49541;57.840;12.306;2023-04-27T16:43:28;100519.34;;;9.95;35.71
63405;BME280;49541;57.840;12.306;2023-04-27T16:48:30;100527.72;;;9.91;36.30
63405;BME280;49541;57.840;12.306;2023-04-27T16:53:30;100522.81;;;9.86;36.30
63405;BME280;49541;57.840;12.306;2023-04-27T16:58:30;100524.34;;;9.89;36.02
63405;BME280;49541;57.840;12.306;2023-04-27T17:03:32;100515.84;;;9.95;36.99
63405;BME280;49541;57.840;12.306;2023-04-27T17:08:34;100533.00;;;9.81;36.07
63405;BME280;49541;57.840;12.306;2023-04-27T17:13:34;100532.28;;;9.79;33.74
63405;BME280;49541;57.840;12.306;2023-04-27T17:18:36;100526.28;;;9.87;34.30
63405;BME280;49541;57.840;12.306;2023-04-27T17:23:36;100523.84;;;9.95;36.10
63405;BME280;49541;57.840;12.306;2023-04-27T17:28:37;100522.50;;;10.10;36.45
63405;BME280;49541;57.840;12.306;2023-04-27T17:33:37;100531.56;;;9.77;37.98
63405;BME280;49541;57.840;12.306;2023-04-27T17:38:38;100532.84;;;10.03;38.24
63405;BME280;49541;57.840;12.306;2023-04-27T17:43:38;100536.25;;;9.52;41.76
63405;BME280;49541;57.840;12.306;2023-04-27T17:48:38;100533.97;;;9.15;44.82
63405;BME280;49541;57.840;12.306;2023-04-27T17:53:39;100539.72;;;9.32;47.28
63405;BME280;49541;57.840;12.306;2023-04-27T17:58:39;100538.22;;;9.07;51.36
63405;BME280;49541;57.840;12.306;2023-04-27T18:03:39;100545.28;;;8.51;56.17
63405;BME280;49541;57.840;12.306;2023-04-27T18:08:40;100553.50;;;8.48;58.32
63405;BME280;49541;57.840;12.306;2023-04-27T18:13:41;100549.75;;;8.51;59.16
63405;BME280;49541;57.840;12.306;2023-04-27T18:18:41;100556.69;;;8.29;62.68
63405;BME280;49541;57.840;12.306;2023-04-27T18:23:41;100547.28;;;8.14;65.02
63405;BME280;49541;57.840;12.306;2023-04-27T18:28:43;100557.75;;;8.04;65.87
63405;BME280;49541;57.840;12.306;2023-04-27T18:33:43;100558.44;;;7.95;67.18
63405;BME280;49541;57.840;12.306;2023-04-27T18:38:44;100564.94;;;7.91;67.91
63405;BME280;49541;57.840;12.306;2023-04-27T18:43:44;100570.44;;;7.76;68.51
63405;BME280;49541;57.840;12.306;2023-04-27T18:48:44;100575.19;;;7.95;68.37
63405;BME280;49541;57.840;12.306;2023-04-27T18:53:44;100571.50;;;7.98;68.80
63405;BME280;49541;57.840;12.306;2023-04-27T18:58:44;100575.19;;;7.95;68.79
63405;BME280;49541;57.840;12.306;2023-04-27T19:03:47;100579.97;;;8.26;67.68
63405;BME280;49541;57.840;12.306;2023-04-27T19:08:47;100591.16;;;8.07;68.42
63405;BME280;49541;57.840;12.306;2023-04-27T19:13:48;100585.97;;;8.16;68.08
63405;BME280;49541;57.840;12.306;2023-04-27T19:18:48;100591.66;;;8.23;68.55
63405;BME280;49541;57.840;12.306;2023-04-27T19:23:49;100591.59;;;8.47;67.21
63405;BME280;49541;57.840;12.306;2023-04-27T19:28:49;100588.19;;;8.34;67.17
63405;BME280;49541;57.840;12.306;2023-04-27T19:33:49;100583.09;;;8.19;68.67
63405;BME280;49541;57.840;12.306;2023-04-27T19:38:50;100595.69;;;7.93;69.64
63405;BME280;49541;57.840;12.306;2023-04-27T19:43:50;100590.06;;;8.09;69.67
63405;BME280;49541;57.840;12.306;2023-04-27T19:48:51;100589.63;;;8.27;68.66
63405;BME280;49541;57.840;12.306;2023-04-27T19:53:52;100590.66;;;7.66;69.65
63405;BME280;49541;57.840;12.306;2023-04-27T19:58:52;100596.47;;;7.83;70.04
63405;BME280;49541;57.840;12.306;2023-04-27T20:03:52;100602.09;;;8.02;68.43
63405;BME280;49541;57.840;12.306;2023-04-27T20:08:52;100606.41;;;7.92;68.19
63405;BME280;49541;57.840;12.306;2023-04-27T20:13:53;100603.16;;;7.99;67.09
63405;BME280;49541;57.840;12.306;2023-04-27T20:18:53;100606.56;;;8.02;67.15
63405;BME280;49541;57.840;12.306;2023-04-27T20:23:54;100613.31;;;8.06;66.64
63405;BME280;49541;57.840;12.306;2023-04-27T20:28:54;100609.31;;;8.00;66.76
63405;BME280;49541;57.840;12.306;2023-04-27T20:33:55;100603.09;;;7.77;67.35
63405;BME280;49541;57.840;12.306;2023-04-27T20:38:55;100603.94;;;7.77;66.87
63405;BME280;49541;57.840;12.306;2023-04-27T20:43:56;100607.13;;;7.34;68.38
63405;BME280;49541;57.840;12.306;2023-04-27T20:48:57;100608.22;;;7.67;67.52
63405;BME280;49541;57.840;12.306;2023-04-27T20:53:57;100610.44;;;7.25;67.41
63405;BME280;49541;57.840;12.306;2023-04-27T20:58:58;100613.00;;;7.86;66.80
63405;BME280;49541;57.840;12.306;2023-04-27T21:03:58;100609.75;;;7.34;66.95
63405;BME280;49541;57.840;12.306;2023-04-27T21:08:58;100607.03;;;6.86;68.06
63405;BME280;49541;57.840;12.306;2023-04-27T21:13:59;100617.25;;;6.41;69.78
63405;BME280;49541;57.840;12.306;2023-04-27T21:18:59;100617.06;;;6.04;70.89
63405;BME280;49541;57.840;12.306;2023-04-27T21:23:59;100628.56;;;6.43;69.83
63405;BME280;49541;57.840;12.306;2023-04-27T21:29:02;100632.22;;;6.28;69.88
63405;BME280;49541;57.840;12.306;2023-04-27T21:34:04;100626.84;;;6.17;69.00
63405;BME280;49541;57.840;12.306;2023-04-27T21:39:04;100623.53;;;6.00;68.59
63405;BME280;49541;57.840;12.306;2023-04-27T21:44:05;100624.94;;;6.19;68.06
63405;BME280;49541;57.840;12.306;2023-04-27T21:49:05;100631.41;;;6.79;66.50
63405;BME280;49541;57.840;12.306;2023-04-27T21:54:05;100627.06;;;6.26;67.74
63405;BME280;49541;57.840;12.306;2023-04-27T21:59:05;100631.78;;;6.08;68.79
63405;BME280;49541;57.840;12.306;2023-04-27T22:04:06;100632.91;;;5.64;68.74
63405;BME280;49541;57.840;12.306;2023-04-27T22:09:07;100634.91;;;5.33;68.43
63405;BME280;49541;57.840;12.306;2023-04-27T22:14:07;100641.13;;;5.60;66.94
63405;BME280;49541;57.840;12.306;2023-04-27T22:19:07;100637.84;;;5.83;67.63
63405;BME280;49541;57.840;12.306;2023-04-27T22:24:08;100636.28;;;5.12;69.59
63405;BME280;49541;57.840;12.306;2023-04-27T22:29:08;100636.53;;;5.22;69.32
63405;BME280;49541;57.840;12.306;2023-04-27T22:34:08;100631.44;;;5.19;69.12
63405;BME280;49541;57.840;12.306;2023-04-27T22:39:10;100643.28;;;4.84;69.19
63405;BME280;49541;57.840;12.306;2023-04-27T22:44:10;100648.44;;;4.71;69.01
63405;BME280;49541;57.840;12.306;2023-04-27T22:49:11;100648.91;;;4.64;68.42
63405;BME280;49541;57.840;12.306;2023-04-27T22:54:11;100652.88;;;4.85;67.18
63405;BME280;49541;57.840;12.306;2023-04-27T22:59:11;100656.44;;;4.41;68.40
63405;BME280;49541;57.840;12.306;2023-04-27T23:04:12;100655.59;;;4.55;68.16
63405;BME280;49541;57.840;12.306;2023-04-27T23:09:13;100656.44;;;4.70;68.19
63405;BME280;49541;57.840;12.306;2023-04-27T23:14:13;100658.63;;;4.78;68.38
63405;BME280;49541;57.840;12.306;2023-04-27T23:19:13;100662.47;;;4.58;68.94
63405;BME280;49541;57.840;12.306;2023-04-27T23:24:13;100668.38;;;4.33;70.00
63405;BME280;49541;57.840;12.306;2023-04-27T23:29:14;100662.97;;;4.20;70.53
63405;BME280;49541;57.840;12.306;2023-04-27T23:34:14;100660.38;;;4.48;70.49
63405;BME280;49541;57.840;12.306;2023-04-27T23:39:14;100665.78;;;5.46;67.80
63405;BME280;49541;57.840;12.306;2023-04-27T23:44:14;100662.75;;;4.67;69.60
63405;BME280;49541;57.840;12.306;2023-04-27T23:49:14;100668.75;;;4.10;71.45
63405;BME280;49541;57.840;12.306;2023-04-27T23:54:15;100656.78;;;4.49;71.46
63405;BME280;49541;57.840;12.306;2023-04-27T23:59:15;100671.13;;;4.60;71.52
